sensor_id;sensor_type;location;lat;lon;timestamp;pressure;altitude;pressure_sealevel;temperature;humidity
52137;BME280;69622;49.570;10.986;2023-04-24T00:00:00;97318.66;;;12.02;100.00
52137;BME280;69622;49.570;10.986;2023-04-24T00:03:01;97320.28;;;12.03;100.00
52137;BME280;69622;49.570;10.986;2023-04-24T00:06:05;97317.75;;;11.65;100.00
52137;BME280;69622;49.570;10.986;2023-04-24T00:09:08;97321.59;;;11.71;100.00
52137;BME280;69622;49.570;10.986;2023-04-24T00:12:11;97313.50;;;11.92;100.00
52137;BME280;69622;49.570;10.986;2023-04-24T00:15:12;97317.81;;;11.83;100.00
52137;BME280;69622;49.570;10.986;2023-04-24T00:18:14;97333.53;;;11.64;100.00
52137;BME280;69622;49.570;10.986;2023-04-24T00:21:15;97324.63;;;11.39;100.00
52137;BME280;69622;49.570;10.986;2023-04-24T00:24:20;97327.13;;;11.58;100.00
52137;BME280;69622;49.570;10.986;2023-04-24T00:27:22;97334.66;;;11.61;100.00
52137;BME280;69622;49.570;10.986;2023-04-24T00:30:23;97328.25;;;11.56;100.00
52137;BME280;69622;49.570;10.986;2023-04-24T00:33:25;97319.81;;;11.44;100.00
52137;BME280;69622;49.570;10.986;2023-04-24T00:36:26;97315.88;;;11.40;100.00
52137;BME280;69622;49.570;10.986;2023-04-24T00:39:28;97324.72;;;11.47;100.00
52137;BME280;69622;49.570;10.986;2023-04-24T00:42:29;97330.56;;;11.31;100.00
52137;BME280;69622;49.570;10.986;2023-04-24T00:45:31;97328.56;;;11.16;100.00
52137;BME280;69622;49.570;10.986;2023-04-24T00:48:33;97313.06;;;11.24;100.00
52137;BME280;69622;49.570;10.986;2023-04-24T00:51:35;97311.03;;;11.18;100.00
52137;BME280;69622;49.570;10.986;2023-04-24T00:54:37;97313.25;;;11.40;100.00
52137;BME280;69622;49.570;10.986;2023-04-24T00:57:39;97313.84;;;11.52;100.00
52137;BME280;69622;49.570;10.986;2023-04-24T01:00:40;97305.84;;;11.63;100.00
52137;BME280;69622;49.570;10.986;2023-04-24T01:03:42;97311.97;;;11.72;100.00
52137;BME280;69622;49.570;10.986;2023-04-24T01:06:45;97312.78;;;11.54;100.00
52137;BME280;69622;49.570;10.986;2023-04-24T01:09:47;97316.91;;;11.47;100.00
52137;BME280;69622;49.570;10.986;2023-04-24T01:12:50;97325.19;;;11.60;100.00
52137;BME280;69622;49.570;10.986;2023-04-24T01:15:51;97322.84;;;11.39;100.00
52137;BME280;69622;49.570;10.986;2023-04-24T01:18:53;97318.31;;;11.42;100.00
52137;BME280;69622;49.570;10.986;2023-04-24T01:21:58;97307.78;;;11.61;100.00
52137;BME280;69622;49.570;10.986;2023-04-24T01:25:03;97321.78;;;11.60;100.00
52137;BME280;69622;49.570;10.986;2023-04-24T01:28:06;97321.31;;;11.64;100.00
52137;BME280;69622;49.570;10.986;2023-04-24T01:31:07;97325.88;;;11.62;100.00
52137;BME280;69622;49.570;10.986;2023-04-24T01:34:09;97328.00;;;11.49;100.00
52137;BME280;69622;49.570;10.986;2023-04-24T01:37:11;97322.63;;;11.51;100.00
52137;BME280;69622;49.570;10.986;2023-04-24T01:40:12;97312.16;;;11.43;100.00
52137;BME280;69622;49.570;10.986;2023-04-24T01:43:14;97316.06;;;11.29;100.00
52137;BME280;69622;49.570;10.986;2023-04-24T01:46:15;97316.00;;;11.38;100.00
52137;BME280;69622;49.570;10.986;2023-04-24T01:49:17;97314.00;;;11.50;100.00
52137;BME280;69622;49.570;10.986;2023-04-24T01:52:18;97316.47;;;11.52;100.00
52137;BME280;69622;49.570;10.986;2023-04-24T01:55:20;97314.00;;;11.50;100.00
52137;BME280;69622;49.570;10.986;2023-04-24T01:58:22;97314.94;;;11.31;100.00
52137;BME280;69622;49.570;10.986;2023-04-24T02:01:24;97314.63;;;11.34;100.00
52137;BME280;69622;49.570;10.986;2023-04-24T02:04:26;97300.06;;;11.24;100.00
52137;BME280;69622;49.570;10.986;2023-04-24T02:07:27;97293.94;;;11.15;100.00
52137;BME280;69622;49.570;10.986;2023-04-24T02:10:29;97293.63;;;11.46;100.00
52137;BME280;69622;49.570;10.986;2023-04-24T02:13:30;97294.47;;;11.64;100.00
52137;BME280;69622;49.570;10.986;2023-04-24T02:16:32;97293.00;;;11.61;100.00
52137;BME280;69622;49.570;10.986;2023-04-24T02:19:34;97292.31;;;11.59;100.00
52137;BME280;69622;49.570;10.986;2023-04-24T02:22:35;97291.66;;;11.57;100.00
52137;BME280;69622;49.570;10.986;2023-04-24T02:25:37;97278.38;;;11.51;100.00
52137;BME280;69622;49.570;10.986;2023-04-24T02:28:38;97270.06;;;11.20;100.00
52137;BME280;69622;49.570;10.986;2023-04-24T02:31:39;97275.38;;;11.28;100.00
52137;BME280;69622;49.570;10.986;2023-04-24T02:34:41;97277.13;;;11.37;100.00
52137;BME280;69622;49.570;10.986;2023-04-24T02:37:42;97277.88;;;11.47;100.00
52137;BME280;69622;49.570;10.986;2023-04-24T02:40:44;97275.88;;;11.41;100.00
52137;BME280;69622;49.570;10.986;2023-04-24T02:43:45;97280.41;;;11.39;100.00
52137;BME280;69622;49.570;10.986;2023-04-24T02:46:47;97279.84;;;11.35;100.00
52137;BME280;69622;49.570;10.986;2023-04-24T02:49:48;97279.53;;;11.21;100.00
52137;BME280;69622;49.570;10.986;2023-04-24T02:52:49;97267.72;;;11.26;100.00
52137;BME280;69622;49.570;10.986;2023-04-24T02:55:51;97271.03;;;11.19;100.00
52137;BME280;69622;49.570;10.986;2023-04-24T02:58:52;97276.25;;;11.19;100.00
52137;BME280;69622;49.570;10.986;2023-04-24T03:01:54;97271.41;;;11.06;100.00
52137;BME280;69622;49.570;10.986;2023-04-24T03:04:55;97268.25;;;11.02;100.00
52137;BME280;69622;49.570;10.986;2023-04-24T03:07:58;97272.44;;;11.13;100.00
52137;BME280;69622;49.570;10.986;2023-04-24T03:10:59;97260.56;;;11.10;100.00
52137;BME280;69622;49.570;10.986;2023-04-24T03:14:01;97261.81;;;11.06;100.00
52137;BME280;69622;49.570;10.986;2023-04-24T03:17:02;97273.81;;;10.80;100.00
52137;BME280;69622;49.570;10.986;2023-04-24T03:20:04;97258.56;;;10.95;100.00
52137;BME280;69622;49.570;10.986;2023-04-24T03:23:06;97264.06;;;10.92;100.00
52137;BME280;69622;49.570;10.986;2023-04-24T03:26:08;97259.63;;;11.02;100.00
52137;BME280;69622;49.570;10.986;2023-04-24T03:29:09;97267.28;;;11.03;100.00
52137;BME280;69622;49.570;10.986;2023-04-24T03:32:11;97261.38;;;11.11;100.00
52137;BME280;69622;49.570;10.986;2023-04-24T03:35:12;97268.28;;;11.20;100.00
52137;BME280;69622;49.570;10.986;2023-04-24T03:38:13;97263.41;;;10.80;100.00
52137;BME280;69622;49.570;10.986;2023-04-24T03:41:15;97263.78;;;10.48;100.00
52137;BME280;69622;49.570;10.986;2023-04-24T03:44:16;97264.31;;;10.61;100.00
52137;BME280;69622;49.570;10.986;2023-04-24T03:47:17;97258.03;;;10.54;100.00
52137;BME280;69622;49.570;10.986;2023-04-24T03:50:19;97256.91;;;10.66;100.00
52137;BME280;69622;49.570;10.986;2023-04-24T03:53:21;97264.63;;;10.86;100.00
52137;BME280;69622;49.570;10.986;2023-04-24T03:56:22;97271.91;;;10.72;100.00
52137;BME280;69622;49.570;10.986;2023-04-24T03:59:24;97268.31;;;10.83;100.00
52137;BME280;69622;49.570;10.986;2023-04-24T04:02:25;97282.06;;;10.75;100.00
52137;BME280;69622;49.570;10.986;2023-04-24T04:05:27;97272.84;;;10.81;100.00
52137;BME280;69622;49.570;10.986;2023-04-24T04:08:28;97275.06;;;10.76;100.00
52137;BME280;69622;49.570;10.986;2023-04-24T04:11:30;97277.72;;;10.57;100.00
52137;BME280;69622;49.570;10.986;2023-04-24T04:14:31;97276.19;;;10.73;100.00
52137;BME280;69622;49.570;10.986;2023-04-24T04:17:33;97274.88;;;10.40;100.00
52137;BME280;69622;49.570;10.986;2023-04-24T04:20:34;97269.41;;;10.43;100.00
52137;BME280;69622;49.570;10.986;2023-04-24T04:23:36;97268.22;;;10.28;100.00
52137;BME280;69622;49.570;10.986;2023-04-24T04:26:37;97265.19;;;10.33;100.00
52137;BME280;69622;49.570;10.986;2023-04-24T04:29:39;97261.63;;;10.24;100.00
52137;BME280;69622;49.570;10.986;2023-04-24T04:32:41;97265.44;;;10.20;100.00
52137;BME280;69622;49.570;10.986;2023-04-24T04:35:43;97270.25;;;10.25;100.00
52137;BME280;69622;49.570;10.986;2023-04-24T04:38:44;97275.19;;;10.28;100.00
52137;BME280;69622;49.570;10.986;2023-04-24T04:41:45;97272.75;;;10.26;100.00
52137;BME280;69622;49.570;10.986;2023-04-24T04:44:50;97273.00;;;10.23;100.00
52137;BME280;69622;49.570;10.986;2023-04-24T04:47:51;97276.25;;;10.06;100.00
52137;BME280;69622;49.570;10.986;2023-04-24T04:50:53;97270.78;;;10.09;100.00
52137;BME280;69622;49.570;10.986;2023-04-24T04:53:54;97279.00;;;10.14;100.00
52137;BME280;69622;49.570;10.986;2023-04-24T04:56:56;97272.41;;;10.19;100.00
52137;BME280;69622;49.570;10.986;2023-04-24T04:59:58;97273.81;;;10.14;100.00
52137;BME280;69622;49.570;10.986;2023-04-24T05:02:59;97274.91;;;10.21;100.00
52137;BME280;69622;49.570;10.986;2023-04-24T05:06:19;97286.13;;;10.31;100.00
52137;BME280;69622;49.570;10.986;2023-04-24T05:09:24;97290.78;;;10.28;100.00
52137;BME280;69622;49.570;10.986;2023-04-24T05:12:28;97297.88;;;10.45;100.00
52137;BME280;69622;49.570;10.986;2023-04-24T05:15:29;97296.09;;;10.45;100.00
52137;BME280;69622;49.570;10.986;2023-04-24T05:18:31;97297.75;;;10.27;100.00
52137;BME280;69622;49.570;10.986;2023-04-24T05:21:33;97301.81;;;10.49;100.00
52137;BME280;69622;49.570;10.986;2023-04-24T05:24:34;97307.00;;;10.20;100.00
52137;BME280;69622;49.570;10.986;2023-04-24T05:27:36;97309.50;;;10.31;100.00
52137;BME280;69622;49.570;10.986;2023-04-24T05:30:37;97317.00;;;10.34;100.00
52137;BME280;69622;49.570;10.986;2023-04-24T05:33:39;97310.31;;;10.22;100.00
52137;BME280;69622;49.570;10.986;2023-04-24T05:36:40;97317.84;;;10.25;100.00
52137;BME280;69622;49.570;10.986;2023-04-24T05:39:42;97327.94;;;9.99;100.00
52137;BME280;69622;49.570;10.986;2023-04-24T05:42:44;97322.34;;;10.23;100.00
52137;BME280;69622;49.570;10.986;2023-04-24T05:45:45;97326.88;;;10.21;100.00
52137;BME280;69622;49.570;10.986;2023-04-24T05:48:47;97335.78;;;10.28;100.00
52137;BME280;69622;49.570;10.986;2023-04-24T05:51:48;97327.56;;;10.42;100.00
52137;BME280;69622;49.570;10.986;2023-04-24T05:54:50;97328.50;;;10.41;100.00
52137;BME280;69622;49.570;10.986;2023-04-24T05:57:51;97330.44;;;10.30;100.00
52137;BME280;69622;49.570;10.986;2023-04-24T06:00:53;97333.41;;;10.25;100.00
52137;BME280;69622;49.570;10.986;2023-04-24T06:03:54;97327.41;;;10.25;100.00
52137;BME280;69622;49.570;10.986;2023-04-24T06:06:56;97332.34;;;10.28;100.00
52137;BME280;69622;49.570;10.986;2023-04-24T06:09:58;97326.59;;;10.34;100.00
52137;BME280;69622;49.570;10.986;2023-04-24T06:12:59;97344.91;;;10.32;100.00
52137;BME280;69622;49.570;10.986;2023-04-24T06:16:01;97336.03;;;10.44;100.00
52137;BME280;69622;49.570;10.986;2023-04-24T06:19:03;97335.72;;;10.57;100.00
52137;BME280;69622;49.570;10.986;2023-04-24T06:22:04;97352.00;;;10.40;100.00
52137;BME280;69622;49.570;10.986;2023-04-24T06:25:06;97350.13;;;10.42;100.00
52137;BME280;69622;49.570;10.986;2023-04-24T06:28:08;97357.59;;;10.55;100.00
52137;BME280;69622;49.570;10.986;2023-04-24T06:31:09;97356.13;;;10.23;100.00
52137;BME280;69622;49.570;10.986;2023-04-24T06:34:11;97364.47;;;10.36;100.00
52137;BME280;69622;49.570;10.986;2023-04-24T06:37:12;97360.75;;;10.39;100.00
52137;BME280;69622;49.570;10.986;2023-04-24T06:40:14;97363.22;;;10.40;100.00
52137;BME280;69622;49.570;10.986;2023-04-24T06:43:15;97368.56;;;10.48;100.00
52137;BME280;69622;49.570;10.986;2023-04-24T06:46:17;97365.94;;;10.68;100.00
52137;BME280;69622;49.570;10.986;2023-04-24T06:49:18;97366.31;;;10.73;100.00
52137;BME280;69622;49.570;10.986;2023-04-24T06:52:20;97375.53;;;10.58;100.00
52137;BME280;69622;49.570;10.986;2023-04-24T06:55:21;97372.78;;;10.69;100.00
52137;BME280;69622;49.570;10.986;2023-04-24T06:58:24;97370.41;;;10.85;100.00
52137;BME280;69622;49.570;10.986;2023-04-24T07:01:26;97373.06;;;10.75;100.00
52137;BME280;69622;49.570;10.986;2023-04-24T07:04:27;97368.53;;;10.77;100.00
52137;BME280;69622;49.570;10.986;2023-04-24T07:07:29;97381.28;;;10.61;100.00
52137;BME280;69622;49.570;10.986;2023-04-24T07:10:31;97379.63;;;10.70;100.00
52137;BME280;69622;49.570;10.986;2023-04-24T07:13:32;97388.09;;;10.72;100.00
52137;BME280;69622;49.570;10.986;2023-04-24T07:16:33;97386.97;;;10.84;100.00
52137;BME280;69622;49.570;10.986;2023-04-24T07:19:35;97394.38;;;10.69;100.00
52137;BME280;69622;49.570;10.986;2023-04-24T07:22:40;97397.28;;;10.76;100.00
52137;BME280;69622;49.570;10.986;2023-04-24T07:25:41;97405.47;;;10.91;100.00
52137;BME280;69622;49.570;10.986;2023-04-24T07:28:43;97410.53;;;10.92;100.00
52137;BME280;69622;49.570;10.986;2023-04-24T07:31:44;97411.63;;;10.80;100.00
52137;BME280;69622;49.570;10.986;2023-04-24T07:34:46;97410.94;;;10.78;100.00
52137;BME280;69622;49.570;10.986;2023-04-24T07:37:47;97410.41;;;10.65;100.00
52137;BME280;69622;49.570;10.986;2023-04-24T07:40:49;97418.78;;;10.59;97.33
52137;BME280;69622;49.570;10.986;2023-04-24T07:43:50;97413.56;;;10.59;96.79
52137;BME280;69622;49.570;10.986;2023-04-24T07:46:52;97421.09;;;10.62;96.40
52137;BME280;69622;49.570;10.986;2023-04-24T07:49:53;97430.78;;;10.69;97.80
52137;BME280;69622;49.570;10.986;2023-04-24T07:52:55;97440.50;;;10.77;95.59
52137;BME280;69622;49.570;10.986;2023-04-24T07:55:56;97434.47;;;10.96;90.71
52137;BME280;69622;49.570;10.986;2023-04-24T07:58:58;97424.97;;;11.24;95.50
52137;BME280;69622;49.570;10.986;2023-04-24T08:01:59;97422.28;;;11.43;93.46
52137;BME280;69622;49.570;10.986;2023-04-24T08:05:02;97435.94;;;11.55;91.75
52137;BME280;69622;49.570;10.986;2023-04-24T08:08:04;97444.44;;;11.57;89.21
52137;BME280;69622;49.570;10.986;2023-04-24T08:11:06;97449.06;;;11.63;83.81
52137;BME280;69622;49.570;10.986;2023-04-24T08:14:07;97446.56;;;11.34;85.46
52137;BME280;69622;49.570;10.986;2023-04-24T08:17:09;97441.50;;;11.32;83.94
52137;BME280;69622;49.570;10.986;2023-04-24T08:20:11;97456.97;;;11.34;84.60
52137;BME280;69622;49.570;10.986;2023-04-24T08:23:15;97446.88;;;11.21;88.10
52137;BME280;69622;49.570;10.986;2023-04-24T08:26:17;97457.28;;;11.21;89.14
52137;BME280;69622;49.570;10.986;2023-04-24T08:29:18;97460.13;;;11.28;87.62
52137;BME280;69622;49.570;10.986;2023-04-24T08:32:20;97471.13;;;11.22;90.84
52137;BME280;69622;49.570;10.986;2023-04-24T08:35:21;97478.00;;;10.94;87.37
52137;BME280;69622;49.570;10.986;2023-04-24T08:38:24;97478.41;;;10.89;86.60
52137;BME280;69622;49.570;10.986;2023-04-24T08:41:27;97470.72;;;10.88;86.85
52137;BME280;69622;49.570;10.986;2023-04-24T08:44:28;97485.53;;;11.06;86.00
52137;BME280;69622;49.570;10.986;2023-04-24T08:47:30;97482.22;;;11.04;83.87
52137;BME280;69622;49.570;10.986;2023-04-24T08:50:32;97472.81;;;10.94;84.84
52137;BME280;69622;49.570;10.986;2023-04-24T08:53:34;97476.34;;;10.83;86.52
52137;BME280;69622;49.570;10.986;2023-04-24T08:56:37;97480.47;;;10.95;85.98
52137;BME280;69622;49.570;10.986;2023-04-24T08:59:40;97475.94;;;10.97;84.99
52137;BME280;69622;49.570;10.986;2023-04-24T09:02:43;97481.53;;;11.22;87.34
52137;BME280;69622;49.570;10.986;2023-04-24T09:05:47;97476.03;;;11.15;87.19
52137;BME280;69622;49.570;10.986;2023-04-24T09:08:51;97484.09;;;11.31;85.09
52137;BME280;69622;49.570;10.986;2023-04-24T09:11:55;97476.56;;;11.38;86.95
52137;BME280;69622;49.570;10.986;2023-04-24T09:14:58;97468.16;;;11.54;85.90
52137;BME280;69622;49.570;10.986;2023-04-24T09:18:01;97474.28;;;11.62;83.29
52137;BME280;69622;49.570;10.986;2023-04-24T09:21:12;97470.38;;;11.76;84.25
52137;BME280;69622;49.570;10.986;2023-04-24T09:24:16;97461.78;;;11.66;79.59
52137;BME280;69622;49.570;10.986;2023-04-24T09:27:23;97468.25;;;11.62;79.40
52137;BME280;69622;49.570;10.986;2023-04-24T09:30:25;97468.47;;;11.41;82.96
52137;BME280;69622;49.570;10.986;2023-04-24T09:33:26;97465.84;;;11.41;85.52
52137;BME280;69622;49.570;10.986;2023-04-24T09:36:34;97460.00;;;11.66;85.96
52137;BME280;69622;49.570;10.986;2023-04-24T09:39:35;97459.91;;;11.58;80.47
52137;BME280;69622;49.570;10.986;2023-04-24T09:42:37;97467.41;;;11.71;81.07
52137;BME280;69622;49.570;10.986;2023-04-24T09:45:39;97460.22;;;11.46;79.90
52137;BME280;69622;49.570;10.986;2023-04-24T09:48:41;97465.00;;;11.50;78.05
52137;BME280;69622;49.570;10.986;2023-04-24T09:51:43;97461.63;;;11.40;77.65
52137;BME280;69622;49.570;10.986;2023-04-24T09:54:52;97471.63;;;11.35;78.60
52137;BME280;69622;49.570;10.986;2023-04-24T09:57:56;97472.19;;;11.29;82.13
52137;BME280;69622;49.570;10.986;2023-04-24T10:00:58;97478.59;;;11.44;82.14
52137;BME280;69622;49.570;10.986;2023-04-24T10:03:59;97472.84;;;11.78;84.16
52137;BME280;69622;49.570;10.986;2023-04-24T10:07:03;97456.50;;;12.13;81.68
52137;BME280;69622;49.570;10.986;2023-04-24T10:10:08;97465.88;;;12.51;80.45
52137;BME280;69622;49.570;10.986;2023-04-24T10:13:10;97466.06;;;12.93;71.24
52137;BME280;69622;49.570;10.986;2023-04-24T10:16:12;97467.84;;;12.93;74.26
52137;BME280;69622;49.570;10.986;2023-04-24T10:19:15;97482.19;;;12.53;68.40
52137;BME280;69622;49.570;10.986;2023-04-24T10:22:17;97494.19;;;12.01;80.33
52137;BME280;69622;49.570;10.986;2023-04-24T10:25:27;97504.09;;;11.40;84.95
52137;BME280;69622;49.570;10.986;2023-04-24T10:28:30;97510.97;;;11.22;86.52
52137;BME280;69622;49.570;10.986;2023-04-24T10:31:33;97509.06;;;10.95;82.06
52137;BME280;69622;49.570;10.986;2023-04-24T10:34:35;97519.59;;;11.13;80.63
52137;BME280;69622;49.570;10.986;2023-04-24T10:37:40;97524.25;;;11.09;81.20
52137;BME280;69622;49.570;10.986;2023-04-24T10:40:43;97527.53;;;11.12;81.24
52137;BME280;69622;49.570;10.986;2023-04-24T10:43:46;97531.06;;;11.20;78.17
52137;BME280;69622;49.570;10.986;2023-04-24T10:46:53;97532.47;;;11.24;78.36
52137;BME280;69622;49.570;10.986;2023-04-24T10:49:58;97549.72;;;11.25;78.49
52137;BME280;69622;49.570;10.986;2023-04-24T10:53:06;97548.72;;;11.36;75.92
52137;BME280;69622;49.570;10.986;2023-04-24T10:56:09;97541.59;;;11.48;79.35
52137;BME280;69622;49.570;10.986;2023-04-24T10:59:23;97542.69;;;11.45;79.13
52137;BME280;69622;49.570;10.986;2023-04-24T11:02:36;97554.91;;;11.35;77.46
52137;BME280;69622;49.570;10.986;2023-04-24T11:08:44;97543.41;;;11.37;68.30
52137;BME280;69622;49.570;10.986;2023-04-24T11:11:46;97544.44;;;11.64;72.64
52137;BME280;69622;49.570;10.986;2023-04-24T11:18:00;97540.94;;;12.02;70.71
52137;BME280;69622;49.570;10.986;2023-04-24T11:21:10;97533.00;;;12.21;72.78
52137;BME280;69622;49.570;10.986;2023-04-24T11:27:41;97541.16;;;12.09;67.31
52137;BME280;69622;49.570;10.986;2023-04-24T11:30:43;97536.84;;;11.90;71.34
52137;BME280;69622;49.570;10.986;2023-04-24T11:33:44;97547.84;;;11.74;73.82
52137;BME280;69622;49.570;10.986;2023-04-24T11:36:46;97541.53;;;11.67;71.83
52137;BME280;69622;49.570;10.986;2023-04-24T11:39:53;97562.16;;;11.41;64.83
52137;BME280;69622;49.570;10.986;2023-04-24T11:42:55;97576.84;;;11.13;66.82
52137;BME280;69622;49.570;10.986;2023-04-24T11:45:59;97580.41;;;10.93;67.21
52137;BME280;69622;49.570;10.986;2023-04-24T11:49:01;97567.66;;;10.99;69.45
52137;BME280;69622;49.570;10.986;2023-04-24T11:52:03;97569.16;;;11.02;66.91
52137;BME280;69622;49.570;10.986;2023-04-24T11:55:07;97565.75;;;11.21;67.55
52137;BME280;69622;49.570;10.986;2023-04-24T11:58:09;97583.25;;;11.28;69.85
52137;BME280;69622;49.570;10.986;2023-04-24T12:01:10;97587.22;;;11.32;69.99
52137;BME280;69622;49.570;10.986;2023-04-24T12:04:13;97591.19;;;11.56;73.79
52137;BME280;69622;49.570;10.986;2023-04-24T12:07:15;97578.81;;;11.67;73.49
52137;BME280;69622;49.570;10.986;2023-04-24T12:10:24;97592.25;;;11.63;70.75
52137;BME280;69622;49.570;10.986;2023-04-24T12:13:26;97582.66;;;11.63;73.28
52137;BME280;69622;49.570;10.986;2023-04-24T12:16:28;97579.38;;;11.81;73.62
52137;BME280;69622;49.570;10.986;2023-04-24T12:19:29;97573.69;;;12.05;73.33
52137;BME280;69622;49.570;10.986;2023-04-24T12:22:53;97569.03;;;12.36;71.51
52137;BME280;69622;49.570;10.986;2023-04-24T12:25:59;97583.53;;;12.11;70.97
52137;BME280;69622;49.570;10.986;2023-04-24T12:29:03;97585.06;;;12.04;73.92
52137;BME280;69622;49.570;10.986;2023-04-24T12:32:15;97591.50;;;12.09;72.17
52137;BME280;69622;49.570;10.986;2023-04-24T12:35:22;97583.31;;;11.94;72.07
52137;BME280;69622;49.570;10.986;2023-04-24T12:38:26;97580.47;;;11.88;74.26
52137;BME280;69622;49.570;10.986;2023-04-24T12:41:30;97596.09;;;11.88;71.64
52137;BME280;69622;49.570;10.986;2023-04-24T12:44:32;97597.34;;;11.84;73.62
52137;BME280;69622;49.570;10.986;2023-04-24T12:47:35;97598.81;;;11.67;73.19
52137;BME280;69622;49.570;10.986;2023-04-24T12:50:38;97595.28;;;11.49;69.47
52137;BME280;69622;49.570;10.986;2023-04-24T12:53:39;97603.00;;;11.40;69.05
52137;BME280;69622;49.570;10.986;2023-04-24T12:56:41;97590.66;;;11.52;70.10
52137;BME280;69622;49.570;10.986;2023-04-24T12:59:43;97591.44;;;11.62;70.35
52137;BME280;69622;49.570;10.986;2023-04-24T13:02:45;97589.53;;;11.84;69.85
52137;BME280;69622;49.570;10.986;2023-04-24T13:05:46;97584.34;;;12.11;67.40
52137;BME280;69622;49.570;10.986;2023-04-24T13:08:47;97594.88;;;12.19;68.44
52137;BME280;69622;49.570;10.986;2023-04-24T13:11:49;97594.06;;;12.74;69.62
52137;BME280;69622;49.570;10.986;2023-04-24T13:14:51;97600.88;;;12.57;67.48
52137;BME280;69622;49.570;10.986;2023-04-24T13:17:52;97589.97;;;12.44;69.29
52137;BME280;69622;49.570;10.986;2023-04-24T13:20:55;97597.44;;;12.29;67.61
52137;BME280;69622;49.570;10.986;2023-04-24T13:23:56;97594.34;;;12.16;68.03
52137;BME280;69622;49.570;10.986;2023-04-24T13:26:58;97592.28;;;12.19;67.49
52137;BME280;69622;49.570;10.986;2023-04-24T13:29:59;97597.38;;;12.11;68.34
52137;BME280;69622;49.570;10.986;2023-04-24T13:33:01;97601.97;;;11.99;66.23
52137;BME280;69622;49.570;10.986;2023-04-24T13:36:02;97597.97;;;11.95;67.32
52137;BME280;69622;49.570;10.986;2023-04-24T13:39:05;97595.06;;;12.08;67.42
52137;BME280;69622;49.570;10.986;2023-04-24T13:42:06;97601.69;;;12.85;67.76
52137;BME280;69622;49.570;10.986;2023-04-24T13:45:08;97589.69;;;13.45;67.63
52137;BME280;69622;49.570;10.986;2023-04-24T13:48:25;97599.81;;;13.66;61.80
52137;BME280;69622;49.570;10.986;2023-04-24T13:51:27;97602.06;;;13.87;63.47
52137;BME280;69622;49.570;10.986;2023-04-24T13:54:28;97605.38;;;13.89;60.79
52137;BME280;69622;49.570;10.986;2023-04-24T13:57:30;97599.19;;;13.98;60.36
52137;BME280;69622;49.570;10.986;2023-04-24T14:00:32;97597.66;;;13.88;55.40
52137;BME280;69622;49.570;10.986;2023-04-24T14:03:34;97606.13;;;13.82;56.90
52137;BME280;69622;49.570;10.986;2023-04-24T14:06:35;97608.53;;;13.75;57.90
52137;BME280;69622;49.570;10.986;2023-04-24T14:09:37;97604.72;;;14.21;59.93
52137;BME280;69622;49.570;10.986;2023-04-24T14:12:39;97598.69;;;14.21;59.75
52137;BME280;69622;49.570;10.986;2023-04-24T14:15:41;97600.75;;;14.17;59.84
52137;BME280;69622;49.570;10.986;2023-04-24T14:18:42;97595.19;;;13.86;61.31
52137;BME280;69622;49.570;10.986;2023-04-24T14:21:43;97584.91;;;13.59;65.51
52137;BME280;69622;49.570;10.986;2023-04-24T14:24:45;97593.66;;;13.49;65.33
52137;BME280;69622;49.570;10.986;2023-04-24T14:27:47;97580.84;;;13.21;63.37
52137;BME280;69622;49.570;10.986;2023-04-24T14:30:48;97589.72;;;13.28;65.05
52137;BME280;69622;49.570;10.986;2023-04-24T14:33:50;97602.88;;;12.90;65.37
52137;BME280;69622;49.570;10.986;2023-04-24T14:36:52;97597.78;;;12.71;66.93
52137;BME280;69622;49.570;10.986;2023-04-24T14:39:53;97595.47;;;12.41;68.61
52137;BME280;69622;49.570;10.986;2023-04-24T14:43:15;97598.84;;;12.23;70.38
52137;BME280;69622;49.570;10.986;2023-04-24T14:46:16;97597.91;;;12.15;69.16
52137;BME280;69622;49.570;10.986;2023-04-24T14:49:18;97604.69;;;11.98;64.49
52137;BME280;69622;49.570;10.986;2023-04-24T14:52:20;97593.56;;;12.06;65.18
52137;BME280;69622;49.570;10.986;2023-04-24T14:55:21;97590.50;;;12.20;64.88
52137;BME280;69622;49.570;10.986;2023-04-24T14:58:22;97583.63;;;12.46;61.37
52137;BME280;69622;49.570;10.986;2023-04-24T15:01:24;97586.25;;;13.09;63.53
52137;BME280;69622;49.570;10.986;2023-04-24T15:04:26;97586.81;;;13.57;60.79
52137;BME280;69622;49.570;10.986;2023-04-24T15:07:29;97597.22;;;13.48;61.06
52137;BME280;69622;49.570;10.986;2023-04-24T15:10:30;97600.44;;;13.60;61.86
52137;BME280;69622;49.570;10.986;2023-04-24T15:13:32;97608.56;;;13.39;59.77
52137;BME280;69622;49.570;10.986;2023-04-24T15:16:33;97608.81;;;13.46;60.14
52137;BME280;69622;49.570;10.986;2023-04-24T15:19:35;97603.84;;;13.07;63.97
52137;BME280;69622;49.570;10.986;2023-04-24T15:22:36;97602.50;;;13.03;62.42
52137;BME280;69622;49.570;10.986;2023-04-24T15:25:38;97611.16;;;12.86;60.28
52137;BME280;69622;49.570;10.986;2023-04-24T15:28:39;97609.34;;;12.86;63.28
52137;BME280;69622;49.570;10.986;2023-04-24T15:31:41;97606.09;;;13.02;64.03
52137;BME280;69622;49.570;10.986;2023-04-24T15:34:42;97612.59;;;12.43;66.50
52137;BME280;69622;49.570;10.986;2023-04-24T15:37:46;97612.25;;;12.28;62.86
52137;BME280;69622;49.570;10.986;2023-04-24T15:40:47;97615.47;;;12.13;62.52
52137;BME280;69622;49.570;10.986;2023-04-24T15:43:49;97620.81;;;12.11;63.25
52137;BME280;69622;49.570;10.986;2023-04-24T15:46:51;97617.31;;;12.03;64.88
52137;BME280;69622;49.570;10.986;2023-04-24T15:49:52;97626.63;;;11.95;63.33
52137;BME280;69622;49.570;10.986;2023-04-24T15:52:54;97630.25;;;11.85;65.47
52137;BME280;69622;49.570;10.986;2023-04-24T15:55:56;97636.25;;;11.66;64.30